Time;durP1;ratioP1;P1;durP2;ratioP2;P2;SDS_P1;SDS_P2;PMS_P1;PMS_P2;Temp;Humidity;BMP_temperature;BMP_pressure;BME280_temperature;BME280_humidity;BME280_pressure;Samples;Min_cycle;Max_cycle;Signal;HPM_P1;HPM_P2
2022/03/25 00:02:21;;;;;;;39.40;17.40;;;;;;;2.28;61.86;99395.05;105948;1277;22659;-72
2022/03/25 00:05:04;;;;;;;32.10;15.30;;;;;;;2.25;62.06;99393.38;105765;1278;23823;-72
2022/03/25 00:07:32;;;;;;;29.50;14.90;;;;;;;2.24;62.26;99393.89;105757;1278;137596;-72
2022/03/25 00:10:13;;;;;;;33.60;14.00;;;;;;;2.21;62.34;99390.48;105675;1277;25204;-72
2022/03/25 00:12:40;;;;;;;36.40;17.50;;;;;;;2.17;62.38;99385.72;105645;1280;137468;-72
2022/03/25 00:15:08;;;;;;;37.00;17.40;;;;;;;2.14;62.30;99384.27;105884;1277;26486;-72
2022/03/25 00:17:35;;;;;;;34.40;15.20;;;;;;;2.10;62.57;99387.36;105641;1277;138155;-72
2022/03/25 00:20:03;;;;;;;32.20;16.10;;;;;;;2.07;62.73;99384.03;105871;1277;22560;-72
2022/03/25 00:22:44;;;;;;;35.70;17.10;;;;;;;2.03;62.99;99379.64;105962;1277;24428;-72
2022/03/25 00:25:11;;;;;;;45.90;19.90;;;;;;;2.01;63.10;99385.31;105656;1278;137666;-72
2022/03/25 00:27:52;;;;;;;53.10;23.20;;;;;;;2.00;63.19;99381.48;105957;1277;24388;-72
2022/03/25 00:30:33;;;;;;;50.90;23.40;;;;;;;1.99;63.09;99378.69;105820;1280;137445;-72
2022/03/25 00:33:01;;;;;;;58.40;26.80;;;;;;;1.97;63.08;99377.48;105895;1278;24269;-72
2022/03/25 00:35:28;;;;;;;52.30;25.70;;;;;;;1.96;63.23;99380.09;105748;1278;22546;-73
2022/03/25 00:37:55;;;;;;;63.60;26.10;;;;;;;1.97;63.27;99376.20;105594;1279;137814;-72
2022/03/25 00:40:22;;;;;;;53.80;25.90;;;;;;;2.00;63.32;99380.07;105872;1279;22571;-72
2022/03/25 00:42:50;;;;;;;56.00;25.70;;;;;;;2.02;63.48;99373.48;105737;1278;137586;-72
2022/03/25 00:45:31;;;;;;;55.40;25.00;;;;;;;2.06;63.52;99377.56;105705;1279;25356;-72
2022/03/25 00:48:13;;;;;;;50.70;24.20;;;;;;;2.09;63.53;99372.77;105722;1277;137868;-72
2022/03/25 00:50:41;;;;;;;56.40;25.20;;;;;;;2.11;63.38;99373.46;105847;1278;25621;-73
2022/03/25 00:53:23;;;;;;;52.60;24.50;;;;;;;2.12;63.42;99367.65;105849;1280;24306;-73
2022/03/25 00:56:05;;;;;;;51.60;24.20;;;;;;;2.12;63.19;99360.83;105724;1278;137341;-74
2022/03/25 00:58:46;;;;;;;55.40;23.30;;;;;;;2.11;63.19;99362.20;105778;1279;24887;-74
2022/03/25 01:01:28;;;;;;;49.90;23.00;;;;;;;2.10;63.09;99360.83;105835;1280;137603;-74
2022/03/25 01:03:55;;;;;;;40.20;18.70;;;;;;;2.07;63.24;99362.24;105974;1278;24260;-73
2022/03/25 01:06:24;;;;;;;50.10;20.50;;;;;;;2.06;63.21;99358.95;105681;1280;137687;-73
2022/03/25 01:09:09;;;;;;;34.20;16.60;;;;;;;2.05;63.18;99362.65;105574;1281;22693;-73
2022/03/25 01:11:36;;;;;;;38.50;17.60;;;;;;;2.06;63.11;99361.14;105760;1279;23096;-73
2022/03/25 01:14:04;;;;;;;38.20;18.20;;;;;;;2.06;63.13;99362.30;105796;1277;137896;-73
2022/03/25 01:16:45;;;;;;;38.80;17.70;;;;;;;2.05;63.12;99359.96;105753;1279;25251;-73
2022/03/25 01:19:27;;;;;;;42.30;17.80;;;;;;;2.02;62.95;99355.98;105681;1278;138109;-73
2022/03/25 01:22:08;;;;;;;37.20;17.10;;;;;;;1.99;63.01;99350.95;105772;1279;22665;-73
2022/03/25 01:24:50;;;;;;;35.80;16.00;;;;;;;1.95;62.96;99350.98;105677;1279;137410;-72
2022/03/25 01:27:17;;;;;;;27.70;14.50;;;;;;;1.93;62.88;99351.84;105863;1278;25508;-73
2022/03/25 01:29:45;;;;;;;34.90;15.30;;;;;;;1.93;63.28;99350.71;105837;1278;137571;-73
2022/03/25 01:32:12;;;;;;;32.60;15.60;;;;;;;1.95;63.22;99348.73;105788;1279;22594;-73
2022/03/25 01:34:53;;;;;;;33.30;15.90;;;;;;;1.95;63.08;99344.98;105787;1281;22616;-73
2022/03/25 01:37:34;;;;;;;36.80;15.20;;;;;;;1.94;62.83;99346.33;106021;1279;138069;-73
2022/03/25 01:40:14;;;;;;;35.20;16.00;;;;;;;1.92;63.01;99342.96;105793;1279;22715;-73
2022/03/25 01:42:42;;;;;;;32.10;14.20;;;;;;;1.89;62.82;99338.91;105658;1279;137580;-73
2022/03/25 01:45:11;;;;;;;28.00;13.80;;;;;;;1.88;62.94;99341.08;105743;1279;24296;-73
2022/03/25 01:47:52;;;;;;;35.70;14.30;;;;;;;1.84;63.23;99342.71;105864;1280;137809;-73
2022/03/25 01:50:20;;;;;;;39.10;17.50;;;;;;;1.79;63.21;99346.48;105776;1280;22557;-73
2022/03/25 01:53:03;;;;;;;43.00;19.00;;;;;;;1.67;63.29;99347.73;105662;1280;25513;-73
2022/03/25 01:55:37;;;;;;;37.00;16.30;;;;;;;1.55;63.51;99346.24;105585;1280;137494;-73
2022/03/25 01:58:06;;;;;;;39.50;16.60;;;;;;;1.46;63.75;99345.91;105712;1279;25356;-73
2022/03/25 02:00:47;;;;;;;31.60;15.20;;;;;;;1.41;64.01;99346.29;105423;1280;137782;-73
2022/03/25 02:03:19;;;;;;;34.70;15.60;;;;;;;1.41;64.27;99348.77;105449;1280;24867;-73
2022/03/25 02:06:00;;;;;;;33.70;15.80;;;;;;;1.43;64.34;99346.79;105712;1280;137817;-73
2022/03/25 02:08:27;;;;;;;35.90;16.10;;;;;;;1.44;64.57;99344.17;106000;1278;24303;-73
2022/03/25 02:11:09;;;;;;;33.40;15.60;;;;;;;1.47;64.48;99343.17;105674;1280;24394;-73
2022/03/25 02:13:37;;;;;;;37.00;17.00;;;;;;;1.47;64.53;99343.79;105752;1278;137685;-73
2022/03/25 02:16:18;;;;;;;35.60;16.90;;;;;;;1.49;64.61;99349.55;105589;1279;22597;-73
2022/03/25 02:18:59;;;;;;;36.50;16.40;;;;;;;1.49;64.50;99347.23;105757;1277;137632;-73
2022/03/25 02:21:34;;;;;;;41.60;17.40;;;;;;;1.48;64.50;99347.80;105845;1277;23925;-73
2022/03/25 02:24:01;;;;;;;37.00;15.60;;;;;;;1.48;64.40;99346.77;105811;1277;138542;-73
2022/03/25 02:26:29;;;;;;;37.50;17.20;;;;;;;1.47;64.55;99347.57;106019;1277;24207;-73
2022/03/25 02:28:57;;;;;;;34.00;17.20;;;;;;;1.45;64.37;99347.07;105668;1279;22543;-73
2022/03/25 02:31:25;;;;;;;34.40;16.60;;;;;;;1.44;64.42;99350.62;105753;1279;137472;-73
2022/03/25 02:34:03;;;;;;;33.90;15.30;;;;;;;1.42;64.48;99350.07;105761;1279;22719;-73
2022/03/25 02:36:45;;;;;;;33.60;15.30;;;;;;;1.41;64.48;99350.71;105626;1279;137562;-73
2022/03/25 02:39:28;;;;;;;34.80;16.70;;;;;;;1.40;64.45;99346.20;105775;1281;28793;-73
2022/03/25 02:42:10;;;;;;;29.80;13.70;;;;;;;1.39;64.40;99347.45;105517;1281;138080;-73
2022/03/25 02:44:37;;;;;;;35.60;14.80;;;;;;;1.36;64.32;99346.27;105860;1277;25251;-73
2022/03/25 02:47:04;;;;;;;28.90;14.00;;;;;;;1.35;64.46;99345.82;105747;1278;22564;-72
2022/03/25 02:49:31;;;;;;;27.50;13.80;;;;;;;1.35;64.31;99345.19;105951;1279;139017;-72
2022/03/25 02:51:58;;;;;;;26.10;13.50;;;;;;;1.33;64.21;99347.23;105813;1280;23925;-72
2022/03/25 02:54:25;;;;;;;26.40;13.00;;;;;;;1.32;64.53;99350.18;105620;1280;137927;-72
2022/03/25 02:57:06;;;;;;;27.80;13.60;;;;;;;1.32;64.46;99355.41;105319;1281;25312;-72
2022/03/25 02:59:47;;;;;;;30.90;14.80;;;;;;;1.32;64.65;99355.55;105557;1279;137703;-73
2022/03/25 03:02:15;;;;;;;27.20;13.70;;;;;;;1.30;64.72;99358.09;105639;1279;25369;-73
2022/03/25 03:04:56;;;;;;;29.30;15.00;;;;;;;1.28;64.61;99360.67;105729;1279;22545;-72
2022/03/25 03:07:23;;;;;;;33.50;14.60;;;;;;;1.25;64.72;99359.76;105732;1279;137596;-72
2022/03/25 03:10:06;;;;;;;29.00;14.40;;;;;;;1.22;64.47;99358.83;105804;1278;31779;-73
2022/03/25 03:12:47;;;;;;;31.80;15.20;;;;;;;1.18;64.82;99362.34;105659;1278;138167;-74
2022/03/25 03:15:29;;;;;;;29.90;15.80;;;;;;;1.14;64.87;99363.98;105755;1280;22560;-74
2022/03/25 03:18:10;;;;;;;34.00;17.30;;;;;;;1.10;64.93;99365.23;105602;1279;137655;-75
2022/03/25 03:20:51;;;;;;;34.50;15.70;;;;;;;1.07;65.26;99365.60;105762;1279;23218;-75
2022/03/25 03:23:32;;;;;;;36.40;16.30;;;;;;;1.01;65.22;99366.00;105484;1279;25468;-75
2022/03/25 03:25:59;;;;;;;37.60;16.20;;;;;;;0.99;65.36;99369.11;105583;1279;139452;-74
2022/03/25 03:28:26;;;;;;;30.80;14.80;;;;;;;0.97;65.46;99368.09;105752;1279;25328;-73
2022/03/25 03:30:54;;;;;;;38.80;16.60;;;;;;;0.94;65.46;99370.13;105438;1277;137885;-72
2022/03/25 03:33:21;;;;;;;36.50;16.90;;;;;;;0.92;65.88;99371.66;105835;1277;23073;-73
2022/03/25 03:35:48;;;;;;;46.60;21.10;;;;;;;0.89;65.87;99368.73;105734;1278;137817;-72
2022/03/25 03:38:15;;;;;;;38.00;19.20;;;;;;;0.87;66.06;99366.27;105930;1278;22560;-72
2022/03/25 03:40:56;;;;;;;39.00;18.90;;;;;;;0.85;66.14;99369.48;105759;1279;29940;-72
2022/03/25 03:43:23;;;;;;;37.10;17.30;;;;;;;0.83;66.16;99371.85;105762;1277;138066;-73
2022/03/25 03:45:50;;;;;;;36.40;17.50;;;;;;;0.80;66.16;99369.56;105702;1280;22695;-73
2022/03/25 03:48:31;;;;;;;31.40;15.60;;;;;;;0.77;66.40;99375.38;105729;1278;138506;-73
2022/03/25 03:50:58;;;;;;;37.60;16.20;;;;;;;0.73;66.53;99370.71;105815;1279;25399;-73
2022/03/25 03:53:39;;;;;;;36.80;16.90;;;;;;;0.71;66.33;99370.83;105828;1279;25148;-73
2022/03/25 03:56:22;;;;;;;36.00;17.20;;;;;;;0.68;66.50;99369.31;105585;1279;138839;-73
2022/03/25 03:58:49;;;;;;;37.80;18.00;;;;;;;0.67;66.47;99374.80;105792;1279;22545;-73
2022/03/25 04:01:16;;;;;;;39.60;17.60;;;;;;;0.67;66.66;99376.38;106047;1277;138222;-73
2022/03/25 04:03:57;;;;;;;36.00;17.80;;;;;;;0.69;66.85;99376.02;105816;1280;24228;-73
2022/03/25 04:06:38;;;;;;;35.60;17.90;;;;;;;0.71;67.16;99372.39;105690;1279;137921;-73
2022/03/25 04:09:19;;;;;;;39.50;19.00;;;;;;;0.74;67.14;99370.46;105788;1279;22589;-73
2022/03/25 04:12:00;;;;;;;41.80;19.60;;;;;;;0.75;66.90;99367.17;105542;1279;137679;-73
2022/03/25 04:14:41;;;;;;;46.30;21.50;;;;;;;0.75;66.93;99371.94;105681;1279;22578;-73
2022/03/25 04:17:23;;;;;;;43.10;20.00;;;;;;;0.74;66.79;99367.41;105744;1279;22569;-73
2022/03/25 04:20:06;;;;;;;41.30;19.20;;;;;;;0.72;66.84;99367.64;105653;1279;137456;-73
2022/03/25 04:22:33;;;;;;;41.50;19.40;;;;;;;0.70;66.84;99370.34;105894;1277;22557;-73
2022/03/25 04:25:00;;;;;;;41.80;19.60;;;;;;;0.68;66.84;99369.65;105730;1280;137622;-72
2022/03/25 04:27:27;;;;;;;46.30;19.00;;;;;;;0.65;66.92;99370.34;105677;1279;24442;-73
2022/03/25 04:30:09;;;;;;;39.10;18.30;;;;;;;0.63;66.90;99370.36;105653;1279;138203;-72
2022/03/25 04:32:51;;;;;;;40.60;17.60;;;;;;;0.60;66.98;99371.41;105803;1280;26607;-72
2022/03/25 04:35:19;;;;;;;40.20;18.70;;;;;;;0.56;67.31;99373.04;105929;1278;22580;-72
2022/03/25 04:37:47;;;;;;;40.40;19.50;;;;;;;0.52;67.25;99371.10;105870;1277;137476;-72
2022/03/25 04:40:29;;;;;;;41.50;19.10;;;;;;;0.49;67.54;99369.85;105864;1279;22710;-72
2022/03/25 04:42:59;;;;;;;37.90;18.80;;;;;;;0.48;67.37;99371.69;105795;1278;138234;-72
2022/03/25 04:45:27;;;;;;;39.30;17.20;;;;;;;0.48;67.60;99370.14;105739;1279;22560;-72
2022/03/25 04:48:10;;;;;;;31.90;16.60;;;;;;;0.49;67.60;99374.23;105671;1279;137643;-72
2022/03/25 04:50:39;;;;;;;39.80;18.40;;;;;;;0.49;67.63;99376.98;105793;1279;25254;-72
2022/03/25 04:53:19;;;;;;;37.90;17.80;;;;;;;0.48;67.83;99379.95;105820;1279;23264;-72
2022/03/25 04:56:01;;;;;;;32.80;16.60;;;;;;;0.47;67.89;99383.09;105795;1278;137508;-72
2022/03/25 04:58:42;;;;;;;40.90;22.80;;;;;;;0.44;67.95;99381.60;105739;1279;22553;-73
2022/03/25 05:01:23;;;;;;;33.60;16.00;;;;;;;0.37;67.76;99383.02;105703;1276;137492;-75
2022/03/25 05:03:50;;;;;;;33.70;16.90;;;;;;;0.30;68.04;99384.11;105680;1280;24242;-75
2022/03/25 05:06:17;;;;;;;32.00;15.80;;;;;;;0.28;68.23;99387.98;105701;1278;137627;-75
2022/03/25 05:08:59;;;;;;;34.10;16.00;;;;;;;0.29;68.42;99388.27;105800;1277;24374;-72
2022/03/25 05:11:26;;;;;;;31.10;15.10;;;;;;;0.31;68.61;99386.98;105938;1277;22534;-72
2022/03/25 05:13:53;;;;;;;29.60;13.90;;;;;;;0.36;68.61;99392.56;105730;1278;137937;-72
2022/03/25 05:16:34;;;;;;;31.30;14.60;;;;;;;0.41;68.71;99393.87;105670;1279;22541;-72
2022/03/25 05:19:14;;;;;;;37.40;15.50;;;;;;;0.45;68.61;99400.61;105579;1278;137544;-75
2022/03/25 05:21:41;;;;;;;34.70;16.00;;;;;;;0.49;68.75;99398.05;105721;1278;22567;-75
2022/03/25 05:24:22;;;;;;;40.40;17.70;;;;;;;0.53;68.61;99403.20;105707;1279;137928;-72
2022/03/25 05:26:49;;;;;;;41.30;16.50;;;;;;;0.57;68.45;99411.14;105984;1277;22600;-73
2022/03/25 05:29:30;;;;;;;39.00;18.00;;;;;;;0.62;68.21;99407.68;105924;1277;22705;-72
2022/03/25 05:31:57;;;;;;;37.90;18.10;;;;;;;0.67;68.15;99416.23;105606;1278;137612;-72
2022/03/25 05:34:38;;;;;;;39.00;16.30;;;;;;;0.72;68.01;99420.65;105485;1279;22780;-72
2022/03/25 05:37:06;;;;;;;35.50;17.50;;;;;;;0.78;68.22;99422.46;105808;1279;137623;-72
2022/03/25 05:39:47;;;;;;;37.20;17.50;;;;;;;0.82;68.07;99419.33;105910;1277;24319;-73
2022/03/25 05:42:14;;;;;;;47.10;20.60;;;;;;;0.86;68.04;99424.48;105671;1278;137830;-73
2022/03/25 05:44:41;;;;;;;47.40;20.70;;;;;;;0.91;68.11;99427.00;105632;1279;22551;-73
2022/03/25 05:47:22;;;;;;;53.30;21.30;;;;;;;0.95;67.97;99429.40;105828;1280;22660;-73
2022/03/25 05:49:48;;;;;;;46.80;20.90;;;;;;;1.01;67.70;99431.52;105607;1280;138605;-72
2022/03/25 05:52:29;;;;;;;42.30;21.20;;;;;;;1.09;67.86;99433.16;105707;1279;24324;-72
2022/03/25 05:54:56;;;;;;;56.30;24.90;;;;;;;1.17;67.97;99434.71;105596;1279;137532;-72
2022/03/25 05:57:37;;;;;;;55.30;24.60;;;;;;;1.25;68.07;99434.71;105613;1281;22557;-73
2022/03/25 06:00:18;;;;;;;55.00;24.60;;;;;;;1.34;68.00;99439.12;105621;1279;137758;-73
2022/03/25 06:02:45;;;;;;;59.40;24.10;;;;;;;1.42;67.62;99437.27;105634;1278;22539;-73
2022/03/25 06:05:27;;;;;;;56.10;25.00;;;;;;;1.50;67.65;99442.48;105590;1280;23959;-73
2022/03/25 06:07:54;;;;;;;54.80;25.40;;;;;;;1.57;67.41;99441.05;105613;1279;137534;-73
2022/03/25 06:10:21;;;;;;;63.60;25.90;;;;;;;1.63;67.38;99446.63;105615;1279;23191;-73
2022/03/25 06:13:02;;;;;;;59.50;27.00;;;;;;;1.70;67.13;99445.95;105508;1279;138317;-73
2022/03/25 06:15:29;;;;;;;61.60;25.40;;;;;;;1.76;67.32;99443.55;105703;1279;25267;-73
2022/03/25 06:18:10;;;;;;;74.50;28.40;;;;;;;1.82;67.10;99444.30;105694;1279;137607;-73
2022/03/25 06:20:51;;;;;;;65.50;26.60;;;;;;;1.88;67.31;99446.30;105778;1279;22554;-73
2022/03/25 06:23:32;;;;;;;54.80;26.50;;;;;;;1.96;67.28;99447.05;105627;1280;22630;-73
2022/03/25 06:25:59;;;;;;;49.20;23.80;;;;;;;2.02;67.19;99444.77;105453;1281;137892;-73
2022/03/25 06:28:26;;;;;;;58.10;24.20;;;;;;;2.10;67.07;99448.06;105748;1279;25354;-73
2022/03/25 06:30:53;;;;;;;72.80;27.30;;;;;;;2.18;67.03;99449.19;105710;1280;137448;-73
2022/03/25 06:33:37;;;;;;;73.80;26.50;;;;;;;2.26;66.95;99444.57;105488;1279;22570;-73
2022/03/25 06:36:18;;;;;;;73.80;27.20;;;;;;;2.37;66.93;99445.39;105592;1279;137641;-73
2022/03/25 06:38:45;;;;;;;72.30;30.40;;;;;;;2.46;66.88;99450.61;105783;1279;25367;-73
2022/03/25 06:41:12;;;;;;;68.50;28.20;;;;;;;2.56;66.85;99451.87;105802;1279;22607;-73
2022/03/25 06:43:39;;;;;;;68.40;27.50;;;;;;;2.68;66.62;99453.94;105845;1280;137909;-73
2022/03/25 06:46:06;;;;;;;66.40;25.10;;;;;;;2.82;66.49;99455.30;105795;1279;22639;-73
2022/03/25 06:48:34;;;;;;;67.70;26.10;;;;;;;2.97;66.47;99453.83;105745;1280;138301;-73
2022/03/25 06:51:04;;;;;;;67.10;26.90;;;;;;;3.11;66.10;99456.96;105785;1280;22579;-73
2022/03/25 06:53:46;;;;;;;55.00;24.40;;;;;;;3.26;65.83;99457.06;105790;1279;24418;-73
2022/03/25 06:56:13;;;;;;;57.70;27.10;;;;;;;3.37;65.67;99454.47;105645;1279;137913;-72
2022/03/25 06:58:41;;;;;;;62.00;27.00;;;;;;;3.50;65.37;99457.40;105735;1279;24245;-72
2022/03/25 07:01:08;;;;;;;63.20;28.60;;;;;;;3.60;64.99;99456.38;105721;1279;137442;-72
2022/03/25 07:03:35;;;;;;;59.10;26.60;;;;;;;3.70;64.63;99458.30;105803;1278;22538;-72
2022/03/25 07:06:04;;;;;;;60.90;29.00;;;;;;;3.81;64.34;99457.64;105684;1280;137734;-72
2022/03/25 07:08:33;;;;;;;56.30;26.60;;;;;;;3.90;64.10;99451.59;105912;1280;23476;-72
2022/03/25 07:11:00;;;;;;;57.10;23.90;;;;;;;3.99;63.67;99453.48;105848;1280;22859;-72
2022/03/25 07:13:28;;;;;;;59.00;27.00;;;;;;;4.10;63.47;99449.72;105771;1279;137424;-72
2022/03/25 07:16:09;;;;;;;57.80;25.30;;;;;;;4.22;63.31;99445.81;105800;1279;24101;-72
2022/03/25 07:18:49;;;;;;;53.00;26.40;;;;;;;4.34;63.13;99451.60;105591;1279;137616;-72
2022/03/25 07:21:17;;;;;;;72.80;30.00;;;;;;;4.45;63.07;99453.36;105767;1279;22629;-72
2022/03/25 07:23:57;;;;;;;63.90;31.20;;;;;;;4.59;62.90;99449.48;105667;1281;137716;-72
2022/03/25 07:26:24;;;;;;;63.10;28.80;;;;;;;4.72;62.72;99453.08;105874;1279;25251;-72
2022/03/25 07:29:05;;;;;;;66.60;28.30;;;;;;;4.86;62.17;99457.69;105852;1279;22674;-72
2022/03/25 07:31:32;;;;;;;68.40;32.40;;;;;;;5.00;61.97;99458.65;105702;1279;137417;-72
2022/03/25 07:34:14;;;;;;;70.10;33.50;;;;;;;5.16;61.87;99457.77;105742;1279;25250;-72
2022/03/25 07:36:55;;;;;;;66.20;31.70;;;;;;;5.31;61.64;99458.95;105519;1279;137937;-72
2022/03/25 07:39:22;;;;;;;69.50;33.30;;;;;;;5.44;61.09;99456.70;105811;1279;24263;-72
2022/03/25 07:41:49;;;;;;;67.50;34.10;;;;;;;5.57;60.60;99459.45;105691;1279;22573;-72
2022/03/25 07:44:16;;;;;;;81.70;37.20;;;;;;;5.70;60.52;99459.86;105682;1279;138178;-72
2022/03/25 07:46:43;;;;;;;74.90;36.40;;;;;;;5.83;60.21;99459.91;105810;1279;22540;-72
2022/03/25 07:49:24;;;;;;;75.50;37.50;;;;;;;5.96;59.93;99460.79;105732;1280;137443;-72
2022/03/25 07:51:51;;;;;;;86.40;40.30;;;;;;;6.09;59.76;99458.11;105811;1279;22562;-72
2022/03/25 07:54:31;;;;;;;103.70;45.70;;;;;;;6.23;59.83;99458.52;105670;1279;137834;-72
2022/03/25 07:57:12;;;;;;;80.50;39.60;;;;;;;6.39;59.44;99459.46;105661;1279;24235;-72
2022/03/25 07:59:40;;;;;;;92.40;42.20;;;;;;;6.52;59.06;99462.17;105760;1279;22551;-72
2022/03/25 08:02:21;;;;;;;87.10;39.10;;;;;;;6.66;58.69;99461.13;105656;1279;137258;-72
2022/03/25 08:05:01;;;;;;;91.10;41.00;;;;;;;6.80;58.25;99460.77;106025;1279;22709;-72
2022/03/25 08:07:29;;;;;;;88.80;42.00;;;;;;;6.97;57.99;99462.77;105785;1277;137779;-72
2022/03/25 08:09:56;;;;;;;81.50;38.60;;;;;;;7.12;57.25;99464.25;105832;1279;23233;-72
2022/03/25 08:12:37;;;;;;;79.70;39.70;;;;;;;7.26;57.00;99465.50;105563;1281;137599;-72
2022/03/25 08:15:18;;;;;;;76.60;36.80;;;;;;;7.42;56.88;99469.80;105837;1279;24435;-74
2022/03/25 08:18:03;;;;;;;72.20;35.30;;;;;;;7.60;55.94;99471.83;105564;1279;25283;-74
2022/03/25 08:20:36;;;;;;;77.80;37.20;;;;;;;7.76;55.44;99469.70;105458;1280;137481;-73
2022/03/25 08:23:06;;;;;;;71.00;34.40;;;;;;;7.91;55.09;99468.46;105564;1280;23186;-73
2022/03/25 08:28:46;;;;;;;;;;;;;;;8.23;54.24;99466.77;105552;1279;25517;-75
2022/03/25 08:31:28;;;;;;;64.60;29.00;;;;;;;8.36;54.20;99467.56;106082;1279;124100;-73
2022/03/25 08:33:56;;;;;;;68.80;33.80;;;;;;;8.49;53.51;99465.77;106238;1279;22659;-73
2022/03/25 08:36:23;;;;;;;68.60;31.20;;;;;;;8.65;52.94;99464.21;106254;1280;137877;-73
2022/03/25 08:38:52;;;;;;;70.10;32.40;;;;;;;8.80;52.71;99461.29;106655;1279;22561;-73
2022/03/25 08:41:19;;;;;;;55.50;28.90;;;;;;;8.95;52.27;99460.53;105798;1280;25464;-73
2022/03/25 08:44:00;;;;;;;59.30;27.40;;;;;;;9.11;50.76;99457.69;106231;1279;137696;-73
2022/03/25 08:46:41;;;;;;;55.40;28.80;;;;;;;9.26;50.53;99457.75;106084;1281;25637;-73
2022/03/25 08:49:22;;;;;;;50.00;27.00;;;;;;;9.43;50.29;99456.61;106036;1279;137773;-75
2022/03/25 08:51:49;;;;;;;51.00;26.80;;;;;;;9.60;49.43;99455.06;106153;1279;23046;-73
2022/03/25 08:54:18;;;;;;;62.30;28.70;;;;;;;9.77;49.25;99454.08;105822;1279;138902;-73
2022/03/25 08:56:45;;;;;;;67.20;30.90;;;;;;;9.93;49.33;99449.70;106233;1279;23681;-73
2022/03/25 08:59:26;;;;;;;45.70;21.90;;;;;;;10.16;48.38;99446.83;105990;1279;24420;-73
2022/03/25 09:02:07;;;;;;;37.80;18.90;;;;;;;10.34;46.71;99448.16;106041;1280;138208;-73
2022/03/25 09:04:47;;;;;;;33.80;18.60;;;;;;;10.49;46.09;99439.99;106233;1280;22561;-73
2022/03/25 09:07:29;;;;;;;35.90;17.00;;;;;;;10.66;44.91;99441.42;105992;1279;137950;-73
2022/03/25 09:10:16;;;;;;;39.20;19.80;;;;;;;10.81;44.18;99433.77;105807;1279;22567;-72
2022/03/25 09:12:44;;;;;;;45.90;21.70;;;;;;;10.97;44.39;99436.90;105922;1279;138398;-72
2022/03/25 09:15:14;;;;;;;45.50;22.10;;;;;;;11.12;44.47;99437.96;105808;1281;22545;-72
2022/03/25 09:17:41;;;;;;;;;;;;;;;11.28;43.99;99434.95;105806;1280;30327;-72
2022/03/25 09:20:10;;;;;;;41.50;19.30;;;;;;;11.41;43.28;99436.95;105627;1279;123957;-72
2022/03/25 09:22:41;;;;;;;37.20;20.10;;;;;;;11.55;42.42;99434.80;105801;1280;27460;-72
2022/03/25 09:25:10;;;;;;;28.20;16.40;;;;;;;11.67;41.41;99431.70;105533;1280;137724;-74
2022/03/25 09:27:51;;;;;;;30.80;16.20;;;;;;;11.81;40.77;99431.67;105734;1279;25654;-73
2022/03/25 09:30:18;;;;;;;34.10;17.00;;;;;;;11.95;40.80;99426.91;105553;1279;138998;-73
2022/03/25 09:32:45;;;;;;;19.30;9.20;;;;;;;12.10;39.84;99427.38;105765;1279;23056;-73
2022/03/25 09:35:26;;;;;;;10.40;5.00;;;;;;;12.26;36.45;99426.73;105787;1279;25275;-73
2022/03/25 09:37:53;;;;;;;11.10;5.20;;;;;;;12.40;36.12;99428.13;105675;1279;138150;-73
2022/03/25 09:40:34;;;;;;;11.20;5.10;;;;;;;12.53;36.52;99427.27;105758;1279;22536;-73
2022/03/25 09:43:02;;;;;;;11.90;4.80;;;;;;;12.67;36.77;99424.91;105833;1279;137716;-72
2022/03/25 09:45:42;;;;;;;8.20;3.50;;;;;;;12.82;36.05;99422.73;105771;1279;23960;-72
2022/03/25 09:48:10;;;;;;;9.20;4.50;;;;;;;12.93;35.35;99420.97;105770;1279;22481;-72
2022/03/25 09:50:51;;;;;;;7.80;4.20;;;;;;;13.05;35.68;99417.98;105604;1279;137239;-72
2022/03/25 09:53:18;;;;;;;8.60;4.10;;;;;;;13.17;35.93;99417.06;105881;1279;22637;-72
2022/03/25 09:55:59;;;;;;;7.80;4.60;;;;;;;13.30;35.76;99419.45;105612;1279;137501;-72
2022/03/25 09:58:28;;;;;;;8.10;4.90;;;;;;;13.42;35.77;99425.25;105822;1280;23369;-72
2022/03/25 10:01:09;;;;;;;12.40;5.90;;;;;;;13.57;35.72;99423.17;105674;1280;137709;-72
2022/03/25 10:03:51;;;;;;;14.30;6.20;;;;;;;13.64;34.06;99423.55;105780;1280;25255;-72
2022/03/25 10:06:44;;;;;;;12.90;6.10;;;;;;;13.64;33.83;99424.53;105793;1279;137820;-72
2022/03/25 10:09:21;;;;;;;12.30;6.30;;;;;;;13.64;34.13;99426.67;105801;1279;25370;-72
2022/03/25 10:11:48;;;;;;;12.00;5.60;;;;;;;13.70;34.59;99420.00;105608;1281;24388;-72
2022/03/25 10:14:23;;;;;;;9.80;5.20;;;;;;;13.77;34.39;99424.65;105681;1279;137782;-71
2022/03/25 10:17:09;;;;;;;13.30;5.80;;;;;;;13.83;34.61;99419.44;105774;1279;22567;-72
2022/03/25 10:19:48;;;;;;;11.90;5.90;;;;;;;13.93;34.85;99415.81;105724;1279;137974;-72
2022/03/25 10:22:28;;;;;;;14.20;7.10;;;;;;;14.06;34.86;99421.30;105763;1279;22621;-72
2022/03/25 10:25:11;;;;;;;11.60;5.80;;;;;;;14.15;35.00;99421.95;105736;1279;138085;-72
2022/03/25 10:27:40;;;;;;;11.20;5.40;;;;;;;14.25;34.80;99420.55;105910;1279;23965;-72
2022/03/25 10:30:08;;;;;;;;;;;;;;;14.33;34.62;99414.39;105831;1279;25250;-72
2022/03/25 10:32:49;;;;;;;14.00;6.70;;;;;;;14.38;33.98;99416.76;105639;1279;123826;-72
2022/03/25 10:35:30;;;;;;;13.40;6.00;;;;;;;14.37;33.69;99415.21;105751;1279;24267;-72
2022/03/25 10:38:11;;;;;;;11.70;6.90;;;;;;;14.40;34.08;99412.96;105805;1279;137650;-72
2022/03/25 10:40:57;;;;;;;11.90;6.10;;;;;;;14.43;34.00;99411.59;105703;1280;24237;-72
2022/03/25 10:43:56;;;;;;;11.40;6.10;;;;;;;14.45;33.86;99411.14;105828;1280;137736;-72
2022/03/25 10:46:46;;;;;;;10.80;6.10;;;;;;;14.51;34.10;99406.76;105912;1280;22566;-72
2022/03/25 10:49:16;;;;;;;12.10;6.50;;;;;;;14.64;34.54;99404.70;105823;1279;137776;-72
2022/03/25 10:52:00;;;;;;;12.20;5.60;;;;;;;14.74;34.23;99400.86;105715;1279;22566;-71
2022/03/25 10:54:41;;;;;;;9.40;5.60;;;;;;;14.84;34.63;99401.80;105658;1279;137758;-72
2022/03/25 10:57:08;;;;;;;13.00;6.20;;;;;;;14.94;34.57;99398.66;105674;1280;22581;-72
2022/03/25 10:59:36;;;;;;;11.70;6.50;;;;;;;15.02;34.10;99401.64;105821;1280;22625;-70
2022/03/25 11:02:08;;;;;;;12.70;7.30;;;;;;;15.10;34.02;99399.61;105607;1280;391965;-72
2022/03/25 11:04:35;;;;;;;10.10;5.80;;;;;;;15.22;33.90;99398.48;105753;1280;22679;-72
2022/03/25 11:07:03;;;;;;;13.10;5.80;;;;;;;15.29;33.35;99400.20;105596;1280;137912;-71
2022/03/25 11:09:31;;;;;;;13.50;6.00;;;;;;;15.31;33.46;99397.61;105568;1279;22643;-71
2022/03/25 11:12:11;;;;;;;14.00;6.10;;;;;;;15.29;33.03;99393.86;105552;1279;24437;-72
2022/03/25 11:14:42;;;;;;;15.60;6.40;;;;;;;15.32;33.85;99392.02;105503;1279;137898;-72
2022/03/25 11:17:10;;;;;;;15.00;7.30;;;;;;;15.40;33.79;99391.15;105719;1279;23921;-73
2022/03/25 11:19:38;;;;;;;10.50;6.10;;;;;;;15.49;33.55;99389.68;105823;1280;138323;-73
2022/03/25 11:22:22;;;;;;;14.70;7.20;;;;;;;15.63;33.27;99387.27;105898;1279;22550;-73
2022/03/25 11:25:04;;;;;;;13.10;6.60;;;;;;;15.72;34.21;99384.77;105621;1279;137835;-73
2022/03/25 11:27:54;;;;;;;12.60;6.60;;;;;;;15.84;32.98;99381.79;105795;1280;22565;-73
2022/03/25 11:30:21;;;;;;;12.00;6.40;;;;;;;15.91;33.22;99376.77;105723;1279;29565;-72
2022/03/25 11:33:06;;;;;;;11.20;6.40;;;;;;;16.06;33.03;99376.31;105662;1279;137692;-72
2022/03/25 11:35:48;;;;;;;13.90;7.40;;;;;;;16.18;32.82;99374.86;105724;1279;22580;-72
2022/03/25 11:38:28;;;;;;;14.60;7.40;;;;;;;16.16;31.88;99377.91;105855;1279;137686;-73
2022/03/25 11:41:26;;;;;;;13.20;7.30;;;;;;;16.06;32.10;99372.96;105777;1280;25402;-72
2022/03/25 11:44:25;;;;;;;15.70;7.40;;;;;;;15.96;32.35;99371.16;105636;1280;138013;-72
2022/03/25 11:46:58;;;;;;;11.60;6.40;;;;;;;15.98;32.42;99365.63;105896;1279;23047;-72
2022/03/25 11:49:30;;;;;;;7.80;5.10;;;;;;;16.09;32.75;99362.45;105906;1279;138042;-72
2022/03/25 11:52:28;;;;;;;14.00;6.10;;;;;;;16.13;32.15;99365.19;105856;1280;22674;-72